sensor_id;sensor_type;location;lat;lon;timestamp;temperature;humidity
15296;DHT22;7749;49.964;7.890;2023-05-08T00:02:08;16.70;99.90
15296;DHT22;7749;49.964;7.890;2023-05-08T00:04:37;16.60;99.90
15296;DHT22;7749;49.964;7.890;2023-05-08T00:07:05;16.60;99.90
15296;DHT22;7749;49.964;7.890;2023-05-08T00:09:32;16.60;99.90
15296;DHT22;7749;49.964;7.890;2023-05-08T00:12:00;16.60;99.90
15296;DHT22;7749;49.964;7.890;2023-05-08T00:14:28;16.60;99.90
15296;DHT22;7749;49.964;7.890;2023-05-08T00:16:58;16.60;99.90
15296;DHT22;7749;49.964;7.890;2023-05-08T00:19:26;16.60;99.90
15296;DHT22;7749;49.964;7.890;2023-05-08T00:21:54;16.70;99.90
15296;DHT22;7749;49.964;7.890;2023-05-08T00:24:21;16.60;99.90
15296;DHT22;7749;49.964;7.890;2023-05-08T00:26:49;16.70;99.90
15296;DHT22;7749;49.964;7.890;2023-05-08T00:29:17;16.70;99.90
15296;DHT22;7749;49.964;7.890;2023-05-08T00:31:44;16.60;99.90
15296;DHT22;7749;49.964;7.890;2023-05-08T00:34:12;16.60;99.90
15296;DHT22;7749;49.964;7.890;2023-05-08T00:36:42;16.60;99.90
15296;DHT22;7749;49.964;7.890;2023-05-08T00:39:10;16.50;99.90
15296;DHT22;7749;49.964;7.890;2023-05-08T00:41:39;16.60;99.90
15296;DHT22;7749;49.964;7.890;2023-05-08T00:44:06;16.50;99.90
15296;DHT22;7749;49.964;7.890;2023-05-08T00:46:35;16.60;99.90
15296;DHT22;7749;49.964;7.890;2023-05-08T00:49:04;16.40;99.90
15296;DHT22;7749;49.964;7.890;2023-05-08T00:51:32;16.40;99.90
15296;DHT22;7749;49.964;7.890;2023-05-08T00:54:00;16.40;99.90
15296;DHT22;7749;49.964;7.890;2023-05-08T00:56:29;16.20;99.90
15296;DHT22;7749;49.964;7.890;2023-05-08T00:59:02;16.20;99.90
15296;DHT22;7749;49.964;7.890;2023-05-08T01:01:31;16.20;99.90
15296;DHT22;7749;49.964;7.890;2023-05-08T01:04:00;16.20;99.90
15296;DHT22;7749;49.964;7.890;2023-05-08T01:06:28;16.20;99.90
15296;DHT22;7749;49.964;7.890;2023-05-08T01:09:05;16.00;99.90
15296;DHT22;7749;49.964;7.890;2023-05-08T01:11:55;16.10;99.90
15296;DHT22;7749;49.964;7.890;2023-05-08T01:14:40;16.10;99.90
15296;DHT22;7749;49.964;7.890;2023-05-08T01:33:55;16.00;99.90
15296;DHT22;7749;49.964;7.890;2023-05-08T01:36:53;16.00;99.90
15296;DHT22;7749;49.964;7.890;2023-05-08T01:39:45;16.00;99.90
15296;DHT22;7749;49.964;7.890;2023-05-08T01:42:28;15.90;99.90
15296;DHT22;7749;49.964;7.890;2023-05-08T01:45:02;15.90;99.90
15296;DHT22;7749;49.964;7.890;2023-05-08T01:47:36;15.90;99.90
15296;DHT22;7749;49.964;7.890;2023-05-08T01:50:18;15.80;99.90
15296;DHT22;7749;49.964;7.890;2023-05-08T01:52:59;15.90;99.90
15296;DHT22;7749;49.964;7.890;2023-05-08T01:55:36;15.80;99.90
15296;DHT22;7749;49.964;7.890;2023-05-08T01:58:08;15.80;99.90
15296;DHT22;7749;49.964;7.890;2023-05-08T02:00:38;15.80;99.90
15296;DHT22;7749;49.964;7.890;2023-05-08T02:03:13;15.90;99.90
15296;DHT22;7749;49.964;7.890;2023-05-08T02:05:43;15.90;99.90
15296;DHT22;7749;49.964;7.890;2023-05-08T02:08:13;15.90;99.90
15296;DHT22;7749;49.964;7.890;2023-05-08T02:10:42;15.80;99.90
15296;DHT22;7749;49.964;7.890;2023-05-08T02:13:13;15.80;99.90
15296;DHT22;7749;49.964;7.890;2023-05-08T02:15:51;15.80;99.90
15296;DHT22;7749;49.964;7.890;2023-05-08T02:18:23;15.80;99.90
15296;DHT22;7749;49.964;7.890;2023-05-08T02:20:52;15.70;99.90
15296;DHT22;7749;49.964;7.890;2023-05-08T02:23:23;15.70;99.90
15296;DHT22;7749;49.964;7.890;2023-05-08T02:25:52;15.70;99.90
15296;DHT22;7749;49.964;7.890;2023-05-08T02:28:22;15.70;99.90
15296;DHT22;7749;49.964;7.890;2023-05-08T02:30:51;15.80;99.90
15296;DHT22;7749;49.964;7.890;2023-05-08T02:33:19;15.80;99.90
15296;DHT22;7749;49.964;7.890;2023-05-08T02:35:48;15.90;99.90
15296;DHT22;7749;49.964;7.890;2023-05-08T02:38:22;15.80;99.90
15296;DHT22;7749;49.964;7.890;2023-05-08T02:40:59;15.90;99.90
15296;DHT22;7749;49.964;7.890;2023-05-08T02:43:27;15.90;99.90
15296;DHT22;7749;49.964;7.890;2023-05-08T02:49:24;16.00;99.90
15296;DHT22;7749;49.964;7.890;2023-05-08T03:00:57;15.90;99.90
15296;DHT22;7749;49.964;7.890;2023-05-08T03:03:31;16.00;99.90
15296;DHT22;7749;49.964;7.890;2023-05-08T03:06:08;16.00;99.90
15296;DHT22;7749;49.964;7.890;2023-05-08T03:08:39;16.00;99.90
15296;DHT22;7749;49.964;7.890;2023-05-08T03:11:18;16.00;99.90
15296;DHT22;7749;49.964;7.890;2023-05-08T03:13:48;16.10;99.90
15296;DHT22;7749;49.964;7.890;2023-05-08T03:16:21;16.10;99.90
15296;DHT22;7749;49.964;7.890;2023-05-08T03:18:56;16.20;99.90
15296;DHT22;7749;49.964;7.890;2023-05-08T03:21:28;16.20;99.90
15296;DHT22;7749;49.964;7.890;2023-05-08T03:23:58;16.30;99.90
15296;DHT22;7749;49.964;7.890;2023-05-08T03:26:27;16.30;99.90
15296;DHT22;7749;49.964;7.890;2023-05-08T03:28:55;16.30;99.90
15296;DHT22;7749;49.964;7.890;2023-05-08T03:31:27;16.20;99.90
15296;DHT22;7749;49.964;7.890;2023-05-08T03:33:58;16.40;99.90
15296;DHT22;7749;49.964;7.890;2023-05-08T03:36:30;16.30;99.90
15296;DHT22;7749;49.964;7.890;2023-05-08T03:38:58;16.20;99.90
15296;DHT22;7749;49.964;7.890;2023-05-08T03:41:26;16.20;99.90
15296;DHT22;7749;49.964;7.890;2023-05-08T03:43:55;16.20;99.90
15296;DHT22;7749;49.964;7.890;2023-05-08T03:46:29;16.20;99.90
15296;DHT22;7749;49.964;7.890;2023-05-08T03:48:59;16.20;99.90
15296;DHT22;7749;49.964;7.890;2023-05-08T03:51:30;16.20;99.90
15296;DHT22;7749;49.964;7.890;2023-05-08T03:53:59;16.20;99.90
15296;DHT22;7749;49.964;7.890;2023-05-08T03:56:29;16.20;99.90
15296;DHT22;7749;49.964;7.890;2023-05-08T03:59:16;16.30;99.90
15296;DHT22;7749;49.964;7.890;2023-05-08T04:01:59;16.20;99.90
15296;DHT22;7749;49.964;7.890;2023-05-08T04:04:38;16.20;99.90
15296;DHT22;7749;49.964;7.890;2023-05-08T04:07:23;16.20;99.90
15296;DHT22;7749;49.964;7.890;2023-05-08T04:12:45;16.10;99.90
15296;DHT22;7749;49.964;7.890;2023-05-08T04:15:20;16.10;99.90
15296;DHT22;7749;49.964;7.890;2023-05-08T04:17:59;16.00;99.90
15296;DHT22;7749;49.964;7.890;2023-05-08T04:20:30;16.00;99.90
15296;DHT22;7749;49.964;7.890;2023-05-08T04:22:59;16.00;99.90
15296;DHT22;7749;49.964;7.890;2023-05-08T04:25:29;16.00;99.90
15296;DHT22;7749;49.964;7.890;2023-05-08T04:28:00;16.00;99.90
15296;DHT22;7749;49.964;7.890;2023-05-08T04:30:29;16.10;99.90
15296;DHT22;7749;49.964;7.890;2023-05-08T04:32:57;16.00;99.90
15296;DHT22;7749;49.964;7.890;2023-05-08T04:35:26;16.10;99.90
15296;DHT22;7749;49.964;7.890;2023-05-08T04:37:54;16.00;99.90
15296;DHT22;7749;49.964;7.890;2023-05-08T04:40:25;16.10;99.90
15296;DHT22;7749;49.964;7.890;2023-05-08T04:42:53;16.00;99.90
15296;DHT22;7749;49.964;7.890;2023-05-08T04:45:20;15.90;99.90
15296;DHT22;7749;49.964;7.890;2023-05-08T04:47:48;15.90;99.90
15296;DHT22;7749;49.964;7.890;2023-05-08T04:50:16;15.90;99.90
15296;DHT22;7749;49.964;7.890;2023-05-08T04:52:43;15.90;99.90
15296;DHT22;7749;49.964;7.890;2023-05-08T04:55:14;15.90;99.90
15296;DHT22;7749;49.964;7.890;2023-05-08T04:57:45;15.80;99.90
15296;DHT22;7749;49.964;7.890;2023-05-08T05:00:13;15.70;99.90
15296;DHT22;7749;49.964;7.890;2023-05-08T05:02:41;15.70;99.90
15296;DHT22;7749;49.964;7.890;2023-05-08T05:05:13;15.70;99.90
15296;DHT22;7749;49.964;7.890;2023-05-08T05:07:45;15.60;99.90
15296;DHT22;7749;49.964;7.890;2023-05-08T05:10:16;15.50;99.90
15296;DHT22;7749;49.964;7.890;2023-05-08T05:12:45;15.40;99.90
15296;DHT22;7749;49.964;7.890;2023-05-08T05:15:13;15.30;99.90
15296;DHT22;7749;49.964;7.890;2023-05-08T05:17:41;15.30;99.90
15296;DHT22;7749;49.964;7.890;2023-05-08T05:20:09;15.30;99.90
15296;DHT22;7749;49.964;7.890;2023-05-08T05:22:40;15.40;99.90
15296;DHT22;7749;49.964;7.890;2023-05-08T05:25:08;15.40;99.90
15296;DHT22;7749;49.964;7.890;2023-05-08T05:27:36;15.40;99.90
15296;DHT22;7749;49.964;7.890;2023-05-08T05:30:08;15.50;99.90
15296;DHT22;7749;49.964;7.890;2023-05-08T05:32:40;15.50;99.90
15296;DHT22;7749;49.964;7.890;2023-05-08T05:35:08;15.40;99.90
15296;DHT22;7749;49.964;7.890;2023-05-08T05:37:39;15.40;99.90
15296;DHT22;7749;49.964;7.890;2023-05-08T05:40:07;15.30;99.90
15296;DHT22;7749;49.964;7.890;2023-05-08T05:42:35;15.40;99.90
15296;DHT22;7749;49.964;7.890;2023-05-08T05:45:06;15.40;99.90
15296;DHT22;7749;49.964;7.890;2023-05-08T05:47:34;15.40;99.90
15296;DHT22;7749;49.964;7.890;2023-05-08T05:50:01;15.50;99.90
15296;DHT22;7749;49.964;7.890;2023-05-08T05:52:29;15.60;99.90
15296;DHT22;7749;49.964;7.890;2023-05-08T05:54:57;15.60;99.90
15296;DHT22;7749;49.964;7.890;2023-05-08T05:57:24;15.80;99.90
15296;DHT22;7749;49.964;7.890;2023-05-08T05:59:52;16.00;99.90
15296;DHT22;7749;49.964;7.890;2023-05-08T06:02:21;16.20;99.90
15296;DHT22;7749;49.964;7.890;2023-05-08T06:04:50;16.30;99.90
15296;DHT22;7749;49.964;7.890;2023-05-08T06:07:18;16.20;99.90
15296;DHT22;7749;49.964;7.890;2023-05-08T06:09:50;16.00;99.90
15296;DHT22;7749;49.964;7.890;2023-05-08T06:12:19;16.00;99.90
15296;DHT22;7749;49.964;7.890;2023-05-08T06:14:47;16.10;99.90
15296;DHT22;7749;49.964;7.890;2023-05-08T06:17:15;16.10;99.90
15296;DHT22;7749;49.964;7.890;2023-05-08T06:19:44;16.30;99.90
15296;DHT22;7749;49.964;7.890;2023-05-08T06:22:26;16.50;99.90
15296;DHT22;7749;49.964;7.890;2023-05-08T06:24:53;16.50;99.90
15296;DHT22;7749;49.964;7.890;2023-05-08T06:27:22;16.40;99.90
15296;DHT22;7749;49.964;7.890;2023-05-08T06:29:50;16.40;99.90
15296;DHT22;7749;49.964;7.890;2023-05-08T06:32:20;16.50;99.90
15296;DHT22;7749;49.964;7.890;2023-05-08T06:34:48;16.50;99.90
15296;DHT22;7749;49.964;7.890;2023-05-08T06:37:16;16.70;99.90
15296;DHT22;7749;49.964;7.890;2023-05-08T06:39:43;16.70;99.90
15296;DHT22;7749;49.964;7.890;2023-05-08T06:42:11;16.70;99.90
15296;DHT22;7749;49.964;7.890;2023-05-08T06:44:39;16.70;99.90
15296;DHT22;7749;49.964;7.890;2023-05-08T06:47:10;16.60;99.90
15296;DHT22;7749;49.964;7.890;2023-05-08T06:49:41;16.50;99.90
15296;DHT22;7749;49.964;7.890;2023-05-08T06:52:08;16.30;99.90
15296;DHT22;7749;49.964;7.890;2023-05-08T06:54:36;16.30;99.90
15296;DHT22;7749;49.964;7.890;2023-05-08T06:57:04;16.10;99.90
15296;DHT22;7749;49.964;7.890;2023-05-08T06:59:32;16.20;99.90
15296;DHT22;7749;49.964;7.890;2023-05-08T07:02:01;16.10;99.90
15296;DHT22;7749;49.964;7.890;2023-05-08T07:04:29;16.10;99.90
15296;DHT22;7749;49.964;7.890;2023-05-08T07:07:10;15.90;99.90
15296;DHT22;7749;49.964;7.890;2023-05-08T07:09:44;15.90;99.90
15296;DHT22;7749;49.964;7.890;2023-05-08T07:12:15;15.90;99.90
15296;DHT22;7749;49.964;7.890;2023-05-08T07:14:43;15.90;99.90
15296;DHT22;7749;49.964;7.890;2023-05-08T07:17:11;15.90;99.90
15296;DHT22;7749;49.964;7.890;2023-05-08T07:19:39;15.90;99.90
15296;DHT22;7749;49.964;7.890;2023-05-08T07:22:06;16.10;99.90
15296;DHT22;7749;49.964;7.890;2023-05-08T07:24:37;16.20;99.90
15296;DHT22;7749;49.964;7.890;2023-05-08T07:27:04;16.30;99.90
15296;DHT22;7749;49.964;7.890;2023-05-08T07:29:33;16.50;99.90
15296;DHT22;7749;49.964;7.890;2023-05-08T07:32:06;16.50;99.90
15296;DHT22;7749;49.964;7.890;2023-05-08T07:34:34;16.50;99.90
15296;DHT22;7749;49.964;7.890;2023-05-08T07:37:02;16.30;99.90
15296;DHT22;7749;49.964;7.890;2023-05-08T07:39:30;16.30;99.90
15296;DHT22;7749;49.964;7.890;2023-05-08T07:41:58;16.30;99.90
15296;DHT22;7749;49.964;7.890;2023-05-08T07:44:25;16.30;99.90
15296;DHT22;7749;49.964;7.890;2023-05-08T07:46:53;16.20;99.90
15296;DHT22;7749;49.964;7.890;2023-05-08T07:49:21;16.00;99.90
15296;DHT22;7749;49.964;7.890;2023-05-08T07:51:48;16.10;99.90
15296;DHT22;7749;49.964;7.890;2023-05-08T07:54:16;16.00;99.90
15296;DHT22;7749;49.964;7.890;2023-05-08T07:56:44;16.00;99.90
15296;DHT22;7749;49.964;7.890;2023-05-08T07:59:12;16.00;99.90
15296;DHT22;7749;49.964;7.890;2023-05-08T08:01:40;16.00;99.90
15296;DHT22;7749;49.964;7.890;2023-05-08T08:04:13;16.10;99.90
15296;DHT22;7749;49.964;7.890;2023-05-08T08:06:42;16.00;99.90
15296;DHT22;7749;49.964;7.890;2023-05-08T08:09:12;16.00;99.90
15296;DHT22;7749;49.964;7.890;2023-05-08T08:11:46;16.10;99.90
15296;DHT22;7749;49.964;7.890;2023-05-08T08:14:13;16.10;99.90
15296;DHT22;7749;49.964;7.890;2023-05-08T08:16:41;16.20;99.90
15296;DHT22;7749;49.964;7.890;2023-05-08T08:19:09;16.20;99.90
15296;DHT22;7749;49.964;7.890;2023-05-08T08:21:43;16.30;99.90
15296;DHT22;7749;49.964;7.890;2023-05-08T08:24:12;16.20;99.90
15296;DHT22;7749;49.964;7.890;2023-05-08T08:26:40;16.20;99.90
15296;DHT22;7749;49.964;7.890;2023-05-08T08:29:08;16.30;99.90
15296;DHT22;7749;49.964;7.890;2023-05-08T08:31:45;16.30;99.90
15296;DHT22;7749;49.964;7.890;2023-05-08T08:34:12;16.40;99.90
15296;DHT22;7749;49.964;7.890;2023-05-08T08:36:40;16.50;99.90
15296;DHT22;7749;49.964;7.890;2023-05-08T08:39:08;16.50;99.90
15296;DHT22;7749;49.964;7.890;2023-05-08T08:41:39;16.50;99.90
15296;DHT22;7749;49.964;7.890;2023-05-08T08:44:07;16.60;99.90
15296;DHT22;7749;49.964;7.890;2023-05-08T08:46:39;16.70;99.90
15296;DHT22;7749;49.964;7.890;2023-05-08T08:49:12;16.60;99.90
15296;DHT22;7749;49.964;7.890;2023-05-08T08:51:53;16.70;99.90
15296;DHT22;7749;49.964;7.890;2023-05-08T08:54:28;16.60;99.90
15296;DHT22;7749;49.964;7.890;2023-05-08T08:57:00;16.60;99.90
15296;DHT22;7749;49.964;7.890;2023-05-08T08:59:28;16.70;99.90
15296;DHT22;7749;49.964;7.890;2023-05-08T09:01:59;16.80;99.90
15296;DHT22;7749;49.964;7.890;2023-05-08T09:04:28;16.80;99.90
15296;DHT22;7749;49.964;7.890;2023-05-08T09:06:58;17.00;99.90
15296;DHT22;7749;49.964;7.890;2023-05-08T09:09:26;16.80;99.90
15296;DHT22;7749;49.964;7.890;2023-05-08T09:11:55;16.80;99.90
15296;DHT22;7749;49.964;7.890;2023-05-08T09:14:24;16.60;99.90
15296;DHT22;7749;49.964;7.890;2023-05-08T09:16:53;16.60;99.90
15296;DHT22;7749;49.964;7.890;2023-05-08T09:19:22;16.60;99.90
15296;DHT22;7749;49.964;7.890;2023-05-08T09:21:58;16.60;99.90
15296;DHT22;7749;49.964;7.890;2023-05-08T09:24:53;16.50;99.90
15296;DHT22;7749;49.964;7.890;2023-05-08T09:27:24;16.50;99.90
15296;DHT22;7749;49.964;7.890;2023-05-08T09:30:05;16.50;99.90
15296;DHT22;7749;49.964;7.890;2023-05-08T09:32:35;16.60;99.90
15296;DHT22;7749;49.964;7.890;2023-05-08T09:35:05;16.70;99.90
15296;DHT22;7749;49.964;7.890;2023-05-08T09:37:42;16.70;99.90
15296;DHT22;7749;49.964;7.890;2023-05-08T09:40:20;16.70;99.90
15296;DHT22;7749;49.964;7.890;2023-05-08T09:42:50;16.70;99.90
15296;DHT22;7749;49.964;7.890;2023-05-08T09:47:56;16.70;99.90
15296;DHT22;7749;49.964;7.890;2023-05-08T09:50:24;16.70;99.90
15296;DHT22;7749;49.964;7.890;2023-05-08T09:52:52;16.80;99.90
15296;DHT22;7749;49.964;7.890;2023-05-08T09:55:20;16.80;99.90
15296;DHT22;7749;49.964;7.890;2023-05-08T09:57:58;16.80;99.90
15296;DHT22;7749;49.964;7.890;2023-05-08T10:00:29;16.90;99.90
15296;DHT22;7749;49.964;7.890;2023-05-08T10:03:01;17.00;99.90
15296;DHT22;7749;49.964;7.890;2023-05-08T10:05:30;17.10;99.90
15296;DHT22;7749;49.964;7.890;2023-05-08T10:08:20;17.00;99.90
15296;DHT22;7749;49.964;7.890;2023-05-08T10:10:49;17.10;99.90
15296;DHT22;7749;49.964;7.890;2023-05-08T10:13:17;17.10;99.90
15296;DHT22;7749;49.964;7.890;2023-05-08T10:15:47;17.10;99.90
15296;DHT22;7749;49.964;7.890;2023-05-08T10:18:21;17.20;99.90
15296;DHT22;7749;49.964;7.890;2023-05-08T10:20:54;17.20;99.90
15296;DHT22;7749;49.964;7.890;2023-05-08T10:23:24;17.20;99.90
15296;DHT22;7749;49.964;7.890;2023-05-08T10:25:55;17.20;99.90
15296;DHT22;7749;49.964;7.890;2023-05-08T10:31:33;17.00;99.90
15296;DHT22;7749;49.964;7.890;2023-05-08T10:34:02;17.20;99.90
15296;DHT22;7749;49.964;7.890;2023-05-08T10:36:30;17.30;99.90
15296;DHT22;7749;49.964;7.890;2023-05-08T10:38:59;17.30;99.90
15296;DHT22;7749;49.964;7.890;2023-05-08T10:41:28;17.40;99.90
15296;DHT22;7749;49.964;7.890;2023-05-08T10:43:56;17.40;99.90
15296;DHT22;7749;49.964;7.890;2023-05-08T10:52:32;17.60;88.40
15296;DHT22;7749;49.964;7.890;2023-05-08T10:55:13;17.60;99.90
15296;DHT22;7749;49.964;7.890;2023-05-08T11:03:22;17.70;90.10
15296;DHT22;7749;49.964;7.890;2023-05-08T11:06:00;17.80;97.30
15296;DHT22;7749;49.964;7.890;2023-05-08T11:08:30;17.80;65.70
15296;DHT22;7749;49.964;7.890;2023-05-08T11:13:36;17.40;94.10
15296;DHT22;7749;49.964;7.890;2023-05-08T11:16:04;17.40;99.90
15296;DHT22;7749;49.964;7.890;2023-05-08T11:19:17;17.40;99.90
15296;DHT22;7749;49.964;7.890;2023-05-08T11:22:10;17.30;99.90
15296;DHT22;7749;49.964;7.890;2023-05-08T11:24:40;17.20;99.90
15296;DHT22;7749;49.964;7.890;2023-05-08T11:27:14;17.20;99.90
15296;DHT22;7749;49.964;7.890;2023-05-08T11:29:42;17.20;99.90
15296;DHT22;7749;49.964;7.890;2023-05-08T11:32:11;17.10;99.90
15296;DHT22;7749;49.964;7.890;2023-05-08T11:37:11;17.20;99.90
15296;DHT22;7749;49.964;7.890;2023-05-08T11:39:42;17.20;99.90
15296;DHT22;7749;49.964;7.890;2023-05-08T11:45:08;16.90;99.90
15296;DHT22;7749;49.964;7.890;2023-05-08T11:47:41;16.90;99.90
15296;DHT22;7749;49.964;7.890;2023-05-08T11:50:12;16.80;99.90
15296;DHT22;7749;49.964;7.890;2023-05-08T11:52:42;16.80;99.90
15296;DHT22;7749;49.964;7.890;2023-05-08T11:55:13;16.70;99.90
15296;DHT22;7749;49.964;7.890;2023-05-08T11:57:42;16.70;99.90
15296;DHT22;7749;49.964;7.890;2023-05-08T12:00:10;16.80;99.90
15296;DHT22;7749;49.964;7.890;2023-05-08T12:02:42;17.00;99.90
15296;DHT22;7749;49.964;7.890;2023-05-08T12:05:13;17.10;99.90
15296;DHT22;7749;49.964;7.890;2023-05-08T12:07:47;17.30;99.90
15296;DHT22;7749;49.964;7.890;2023-05-08T12:10:15;17.30;99.90
15296;DHT22;7749;49.964;7.890;2023-05-08T12:12:44;17.40;99.90
15296;DHT22;7749;49.964;7.890;2023-05-08T12:15:13;17.60;99.90
15296;DHT22;7749;49.964;7.890;2023-05-08T12:17:42;17.80;99.90
15296;DHT22;7749;49.964;7.890;2023-05-08T12:22:40;18.30;95.50
15296;DHT22;7749;49.964;7.890;2023-05-08T12:25:09;18.60;75.70
15296;DHT22;7749;49.964;7.890;2023-05-08T12:27:38;19.00;60.80
15296;DHT22;7749;49.964;7.890;2023-05-08T12:30:07;19.40;1.00
15296;DHT22;7749;49.964;7.890;2023-05-08T12:32:37;19.60;1.00
15296;DHT22;7749;49.964;7.890;2023-05-08T12:35:06;19.80;1.00
15296;DHT22;7749;49.964;7.890;2023-05-08T12:37:35;19.80;1.00
15296;DHT22;7749;49.964;7.890;2023-05-08T12:40:04;19.50;1.00
15296;DHT22;7749;49.964;7.890;2023-05-08T12:42:48;19.60;15.60
15296;DHT22;7749;49.964;7.890;2023-05-08T12:45:19;19.80;11.00
15296;DHT22;7749;49.964;7.890;2023-05-08T12:47:52;20.00;1.00
15296;DHT22;7749;49.964;7.890;2023-05-08T12:50:20;19.90;1.00
15296;DHT22;7749;49.964;7.890;2023-05-08T12:52:48;20.00;1.00
15296;DHT22;7749;49.964;7.890;2023-05-08T12:55:26;20.10;1.00
15296;DHT22;7749;49.964;7.890;2023-05-08T13:00:46;20.20;1.00
15296;DHT22;7749;49.964;7.890;2023-05-08T13:03:27;20.10;1.00
15296;DHT22;7749;49.964;7.890;2023-05-08T13:05:57;20.00;1.00
15296;DHT22;7749;49.964;7.890;2023-05-08T13:08:35;20.00;1.00
15296;DHT22;7749;49.964;7.890;2023-05-08T13:11:09;19.80;1.00
15296;DHT22;7749;49.964;7.890;2023-05-08T13:13:37;19.90;1.00
15296;DHT22;7749;49.964;7.890;2023-05-08T13:16:07;20.10;1.00
15296;DHT22;7749;49.964;7.890;2023-05-08T13:18:36;20.30;1.00
15296;DHT22;7749;49.964;7.890;2023-05-08T13:21:07;20.40;1.00
15296;DHT22;7749;49.964;7.890;2023-05-08T13:23:37;20.70;1.00
15296;DHT22;7749;49.964;7.890;2023-05-08T13:26:06;21.00;1.00
15296;DHT22;7749;49.964;7.890;2023-05-08T13:28:33;21.00;1.00
15296;DHT22;7749;49.964;7.890;2023-05-08T13:31:08;20.70;1.00
15296;DHT22;7749;49.964;7.890;2023-05-08T13:33:36;20.80;1.00
15296;DHT22;7749;49.964;7.890;2023-05-08T13:36:07;21.00;1.00
15296;DHT22;7749;49.964;7.890;2023-05-08T13:38:37;21.00;1.00
15296;DHT22;7749;49.964;7.890;2023-05-08T13:41:07;20.80;1.00
15296;DHT22;7749;49.964;7.890;2023-05-08T13:43:38;20.40;1.00
15296;DHT22;7749;49.964;7.890;2023-05-08T13:46:06;20.20;1.00
15296;DHT22;7749;49.964;7.890;2023-05-08T13:48:34;19.90;1.00
15296;DHT22;7749;49.964;7.890;2023-05-08T13:51:01;19.80;1.00
15296;DHT22;7749;49.964;7.890;2023-05-08T13:53:30;19.80;1.00
15296;DHT22;7749;49.964;7.890;2023-05-08T13:55:58;19.70;1.00
15296;DHT22;7749;49.964;7.890;2023-05-08T13:58:25;19.80;1.00
15296;DHT22;7749;49.964;7.890;2023-05-08T14:00:56;19.90;1.00
15296;DHT22;7749;49.964;7.890;2023-05-08T14:03:23;19.90;1.00
15296;DHT22;7749;49.964;7.890;2023-05-08T14:05:53;19.90;1.00
15296;DHT22;7749;49.964;7.890;2023-05-08T14:08:21;19.60;1.00
15296;DHT22;7749;49.964;7.890;2023-05-08T14:10:49;19.30;1.00
15296;DHT22;7749;49.964;7.890;2023-05-08T14:13:17;19.20;1.00
15296;DHT22;7749;49.964;7.890;2023-05-08T14:15:45;19.00;1.00
15296;DHT22;7749;49.964;7.890;2023-05-08T14:18:19;19.00;1.00
15296;DHT22;7749;49.964;7.890;2023-05-08T14:20:47;18.90;1.00
15296;DHT22;7749;49.964;7.890;2023-05-08T14:23:23;18.90;1.00
15296;DHT22;7749;49.964;7.890;2023-05-08T14:25:52;18.90;1.00
15296;DHT22;7749;49.964;7.890;2023-05-08T14:28:20;19.00;1.00
15296;DHT22;7749;49.964;7.890;2023-05-08T14:30:47;19.00;1.00
15296;DHT22;7749;49.964;7.890;2023-05-08T14:33:15;19.00;1.00
15296;DHT22;7749;49.964;7.890;2023-05-08T14:35:45;19.00;2.10
15296;DHT22;7749;49.964;7.890;2023-05-08T14:38:16;19.10;1.00
15296;DHT22;7749;49.964;7.890;2023-05-08T14:40:44;19.10;1.00
15296;DHT22;7749;49.964;7.890;2023-05-08T14:43:22;19.20;1.00
15296;DHT22;7749;49.964;7.890;2023-05-08T14:45:53;19.20;1.00
15296;DHT22;7749;49.964;7.890;2023-05-08T14:48:21;19.40;1.00
15296;DHT22;7749;49.964;7.890;2023-05-08T14:50:51;19.60;1.00
15296;DHT22;7749;49.964;7.890;2023-05-08T14:53:21;19.90;1.00
15296;DHT22;7749;49.964;7.890;2023-05-08T14:55:50;20.20;1.00
15296;DHT22;7749;49.964;7.890;2023-05-08T14:58:22;20.40;1.00
15296;DHT22;7749;49.964;7.890;2023-05-08T15:00:51;20.50;1.00
15296;DHT22;7749;49.964;7.890;2023-05-08T15:03:19;20.80;1.00
15296;DHT22;7749;49.964;7.890;2023-05-08T15:05:50;21.00;1.00
15296;DHT22;7749;49.964;7.890;2023-05-08T15:08:17;21.20;1.00
15296;DHT22;7749;49.964;7.890;2023-05-08T15:10:45;21.20;1.00
15296;DHT22;7749;49.964;7.890;2023-05-08T15:13:15;21.20;1.00
15296;DHT22;7749;49.964;7.890;2023-05-08T15:15:43;21.20;1.00
15296;DHT22;7749;49.964;7.890;2023-05-08T15:18:13;21.20;1.00
15296;DHT22;7749;49.964;7.890;2023-05-08T15:20:43;21.20;1.00
15296;DHT22;7749;49.964;7.890;2023-05-08T15:23:13;21.30;1.00
15296;DHT22;7749;49.964;7.890;2023-05-08T15:25:40;21.40;1.00
15296;DHT22;7749;49.964;7.890;2023-05-08T15:28:08;21.30;1.00
15296;DHT22;7749;49.964;7.890;2023-05-08T15:30:45;21.40;1.00
15296;DHT22;7749;49.964;7.890;2023-05-08T15:33:13;21.60;1.00
15296;DHT22;7749;49.964;7.890;2023-05-08T15:35:43;21.90;1.00
15296;DHT22;7749;49.964;7.890;2023-05-08T15:38:11;22.40;1.00
15296;DHT22;7749;49.964;7.890;2023-05-08T15:40:39;22.90;99.90
15296;DHT22;7749;49.964;7.890;2023-05-08T15:43:07;23.20;1.00
15296;DHT22;7749;49.964;7.890;2023-05-08T15:45:34;23.40;99.90
15296;DHT22;7749;49.964;7.890;2023-05-08T15:48:02;23.90;1.00
15296;DHT22;7749;49.964;7.890;2023-05-08T15:50:34;24.10;1.00
15296;DHT22;7749;49.964;7.890;2023-05-08T15:53:01;24.00;1.00
15296;DHT22;7749;49.964;7.890;2023-05-08T15:55:31;23.80;99.90
15296;DHT22;7749;49.964;7.890;2023-05-08T15:58:02;23.60;99.90
15296;DHT22;7749;49.964;7.890;2023-05-08T16:00:30;23.90;99.90
15296;DHT22;7749;49.964;7.890;2023-05-08T16:03:11;24.50;65.20
15296;DHT22;7749;49.964;7.890;2023-05-08T16:05:41;25.60;99.90
15296;DHT22;7749;49.964;7.890;2023-05-08T16:08:10;25.70;99.90
15296;DHT22;7749;49.964;7.890;2023-05-08T16:10:41;25.60;1.00
15296;DHT22;7749;49.964;7.890;2023-05-08T16:13:09;24.80;1.00
15296;DHT22;7749;49.964;7.890;2023-05-08T16:15:40;24.30;1.00
15296;DHT22;7749;49.964;7.890;2023-05-08T16:18:08;24.00;99.90
15296;DHT22;7749;49.964;7.890;2023-05-08T16:20:38;23.90;99.90
15296;DHT22;7749;49.964;7.890;2023-05-08T16:23:06;24.00;1.00
15296;DHT22;7749;49.964;7.890;2023-05-08T16:25:36;23.80;47.60
15296;DHT22;7749;49.964;7.890;2023-05-08T16:28:10;23.60;1.00
15296;DHT22;7749;49.964;7.890;2023-05-08T16:30:41;23.40;1.00
15296;DHT22;7749;49.964;7.890;2023-05-08T16:33:13;23.10;1.00
15296;DHT22;7749;49.964;7.890;2023-05-08T16:35:45;22.50;99.90
15296;DHT22;7749;49.964;7.890;2023-05-08T16:38:14;22.30;1.00
15296;DHT22;7749;49.964;7.890;2023-05-08T16:40:45;22.00;1.00
15296;DHT22;7749;49.964;7.890;2023-05-08T16:43:12;21.60;1.00
15296;DHT22;7749;49.964;7.890;2023-05-08T16:45:40;21.50;1.00
15296;DHT22;7749;49.964;7.890;2023-05-08T16:48:09;21.20;1.00
15296;DHT22;7749;49.964;7.890;2023-05-08T16:50:39;21.10;1.00
15296;DHT22;7749;49.964;7.890;2023-05-08T16:53:07;20.90;1.00
15296;DHT22;7749;49.964;7.890;2023-05-08T16:55:35;20.80;1.00
15296;DHT22;7749;49.964;7.890;2023-05-08T16:58:02;20.70;1.00
15296;DHT22;7749;49.964;7.890;2023-05-08T17:00:31;20.50;1.00
15296;DHT22;7749;49.964;7.890;2023-05-08T17:03:02;20.30;1.00
15296;DHT22;7749;49.964;7.890;2023-05-08T17:05:30;20.10;1.00
15296;DHT22;7749;49.964;7.890;2023-05-08T17:07:58;20.00;1.00
15296;DHT22;7749;49.964;7.890;2023-05-08T17:10:34;19.70;1.00
15296;DHT22;7749;49.964;7.890;2023-05-08T17:13:02;19.60;1.00
15296;DHT22;7749;49.964;7.890;2023-05-08T17:15:30;19.50;1.00